地図

経路データ

SID SEASON NUMBER BASIN SUBBASIN NAME ISO_TIME NATURE LAT LON WMO_WIND WMO_PRES WMO_AGENCY TRACK_TYPE DIST2LAND LANDFALL IFLAG USA_AGENCY USA_ATCF_ID USA_LAT USA_LON USA_RECORD USA_STATUS USA_WIND USA_PRES USA_SSHS USA_R34_NE USA_R34_SE USA_R34_SW USA_R34_NW USA_R50_NE USA_R50_SE USA_R50_SW USA_R50_NW USA_R64_NE USA_R64_SE USA_R64_SW USA_R64_NW USA_POCI USA_ROCI USA_RMW USA_EYE TOKYO_LAT TOKYO_LON TOKYO_GRADE TOKYO_WIND TOKYO_PRES TOKYO_R50_DIR TOKYO_R50_LONG TOKYO_R50_SHORT TOKYO_R30_DIR TOKYO_R30_LONG TOKYO_R30_SHORT TOKYO_LAND CMA_LAT CMA_LON CMA_CAT CMA_WIND CMA_PRES HKO_LAT HKO_LON HKO_CAT HKO_WIND HKO_PRES NEWDELHI_LAT NEWDELHI_LON NEWDELHI_GRADE NEWDELHI_WIND NEWDELHI_PRES NEWDELHI_CI NEWDELHI_DP NEWDELHI_POCI REUNION_LAT REUNION_LON REUNION_TYPE REUNION_WIND REUNION_PRES REUNION_TNUM REUNION_CI REUNION_RMW REUNION_R34_NE REUNION_R34_SE REUNION_R34_SW REUNION_R34_NW REUNION_R50_NE REUNION_R50_SE REUNION_R50_SW REUNION_R50_NW REUNION_R64_NE REUNION_R64_SE REUNION_R64_SW REUNION_R64_NW BOM_LAT BOM_LON BOM_TYPE BOM_WIND BOM_PRES BOM_TNUM BOM_CI BOM_RMW BOM_R34_NE BOM_R34_SE BOM_R34_SW BOM_R34_NW BOM_R50_NE BOM_R50_SE BOM_R50_SW BOM_R50_NW BOM_R64_NE BOM_R64_SE BOM_R64_SW BOM_R64_NW BOM_ROCI BOM_POCI BOM_EYE BOM_POS_METHOD BOM_PRES_METHOD NADI_LAT NADI_LON NADI_CAT NADI_WIND NADI_PRES WELLINGTON_LAT WELLINGTON_LON WELLINGTON_WIND WELLINGTON_PRES DS824_LAT DS824_LON DS824_STAGE DS824_WIND DS824_PRES TD9636_LAT TD9636_LON TD9636_STAGE TD9636_WIND TD9636_PRES TD9635_LAT TD9635_LON TD9635_WIND TD9635_PRES TD9635_ROCI NEUMANN_LAT NEUMANN_LON NEUMANN_CLASS NEUMANN_WIND NEUMANN_PRES MLC_LAT MLC_LON MLC_CLASS MLC_WIND MLC_PRES USA_GUST BOM_GUST BOM_GUST_PER REUNION_GUST REUNION_GUST_PER USA_SEAHGT USA_SEARAD_NE USA_SEARAD_SE USA_SEARAD_SW USA_SEARAD_NW STORM_SPEED STORM_DIR
1930024S12059 1930 6 SI MM NOT_NAMED 1930-01-24 06:00:00 NR -11.5000 59.1000 reunion main 974 972 _____O________ -1 -11.5000 59.1000 99 9.90000 2 245
1930024S12059 1930 6 SI MM NOT_NAMED 1930-01-24 09:00:00 NR -11.5501 58.9911 main 961 959 _____P________ -1 -11.5501 58.9911 99 2 239
1930024S12059 1930 6 SI MM NOT_NAMED 1930-01-24 12:00:00 NR -11.6010 58.9346 main 959 947 _____P____O___ -1 -11.6014 58.8795 99 -11.6000 59.1000 7 2 241
1930024S12059 1930 6 SI MM NOT_NAMED 1930-01-24 15:00:00 NR -11.6701 58.7734 main 947 945 _____P____P___ -1 -11.6550 58.7624 99 -11.7003 58.7955 7 4 247
1930024S12059 1930 6 SI MM NOT_NAMED 1930-01-24 18:00:00 NR -11.7500 58.5795 main 945 927 _____P____P___ -1 -11.7122 58.6371 99 -11.8004 58.5027 7 4 247
1930024S12059 1930 6 SI MM NOT_NAMED 1930-01-24 21:00:00 NR -11.8372 58.3673 main 927 903 _____P____P___ -1 -11.7741 58.5010 99 -11.9002 58.2336 7 5 247
1930024S12059 1930 6 SI MM NOT_NAMED 1930-01-25 00:00:00 TS -11.9297 58.1561 main 903 880 _____P___OO___ -1 -11.8419 58.3513 99 -12.0000 58.0000 TC 35 -12.0000 58.0000 2 4 244
1930024S12059 1930 6 SI MM NOT_NAMED 1930-01-25 03:00:00 TS -12.0266 57.9689 main 880 856 _____P___PP___ -1 -11.9168 58.1852 99 -12.1000 57.8575 TC 35 -12.0998 57.8083 2 4 241
1930024S12059 1930 6 SI MM NOT_NAMED 1930-01-25 06:00:00 TS -12.1272 57.7881 reunion main 856 832 _____O___OP___ -1 -12.0000 58.0000 99 9.90000 -12.2000 57.7000 TC 35 -12.1997 57.6423 2 4 241
1930024S12059 1930 6 SI MM NOT_NAMED 1930-01-25 09:00:00 TS -12.2306 57.5965 main 832 808 _____P___PP___ -1 -12.0920 57.7943 99 -12.3000 57.5150 TC 35 -12.2998 57.4802 2 4 242
1930024S12059 1930 6 SI MM NOT_NAMED 1930-01-25 12:00:00 TS -12.3303 57.3908 main 808 785 _____P___OO___ -1 -12.1910 57.5723 99 -12.4000 57.3000 TC 35 -12.4000 57.3000 2 5 245
1930024S12059 1930 6 SI MM NOT_NAMED 1930-01-25 15:00:00 TS -12.4330 57.1507 main 785 750 _____P___PP___ -1 -12.2947 57.3392 99 -12.5000 57.0575 TC 35 -12.5042 57.0554 2 5 247
1930024S12059 1930 6 SI MM NOT_NAMED 1930-01-25 18:00:00 TS -12.5361 56.8977 main 750 727 _____P___OP___ -1 -12.4006 57.1005 99 -12.6000 56.8000 TC 35 -12.6077 56.7926 2 5 248
1930024S12059 1930 6 SI MM NOT_NAMED 1930-01-25 21:00:00 TS -12.6379 56.6434 main 716 693 _____P___PP___ -1 -12.5064 56.8618 99 -12.7000 56.5350 TC 35 -12.7073 56.5335 2 5 247
1930024S12059 1930 6 SI MM NOT_NAMED 1930-01-26 00:00:00 TS -12.7366 56.4095 main 693 669 _____P___OO___ -1 -12.6098 56.6285 99 -12.8000 56.3000 TC 35 -12.8000 56.3000 2 5 245
1930024S12059 1930 6 SI MM NOT_NAMED 1930-01-26 03:00:00 TS -12.8340 56.2194 main 669 656 _____P___PP___ -1 -12.7084 56.4060 99 -12.9075 56.1350 TC 35 -12.8861 56.1171 2 4 242
1930024S12059 1930 6 SI MM NOT_NAMED 1930-01-26 06:00:00 TS -12.9216 56.0541 reunion main 656 632 _____O___OP___ -1 -12.8000 56.2000 99 9.90000 -13.0000 56.0000 TC 35 -12.9649 55.9624 2 3 243
1930024S12059 1930 6 SI MM NOT_NAMED 1930-01-26 09:00:00 TS -12.9906 55.9021 main 632 622 _____P___PP___ -1 -12.8781 56.0298 99 -13.0575 55.8500 TC 35 -13.0362 55.8265 2 3 246
1930024S12059 1930 6 SI MM NOT_NAMED 1930-01-26 12:00:00 TS -13.0501 55.7581 main 618 598 _____P___OO___ -1 -12.9502 55.8744 99 -13.1000 55.7000 TC 35 -13.1000 55.7000 2 3 247
1930024S12059 1930 6 SI MM NOT_NAMED 1930-01-26 15:00:00 TS -13.1081 55.6138 main 598 583 _____P___PP___ -1 -13.0171 55.7311 99 -13.1500 55.5425 TC 35 -13.1572 55.5678 2 3 248
1930024S12059 1930 6 SI MM NOT_NAMED 1930-01-26 18:00:00 TS -13.1623 55.4799 main 583 573 _____P___OP___ -1 -13.0795 55.5971 99 -13.2000 55.4000 TC 35 -13.2075 55.4424 2 3 246
1930024S12059 1930 6 SI MM NOT_NAMED 1930-01-26 21:00:00 TS -13.2141 55.3636 main 573 559 _____P___PP___ -1 -13.1382 55.4698 99 -13.2500 55.3000 TC 35 -13.2540 55.3209 2 2 246
1930024S12059 1930 6 SI MM NOT_NAMED 1930-01-27 00:00:00 TS -13.2647 55.2488 main 549 539 _____P___OO___ -1 -13.1940 55.3463 99 -13.3000 55.2000 TC 35 -13.3000 55.2000 2 3 247
1930024S12059 1930 6 SI MM NOT_NAMED 1930-01-27 03:00:00 TS -13.3159 55.1190 main 539 525 _____P___PP___ -1 -13.2477 55.2240 99 -13.3500 55.0500 TC 35 -13.3499 55.0831 2 3 248
1930024S12059 1930 6 SI MM NOT_NAMED 1930-01-27 06:00:00 TS -13.3666 54.9883 reunion main 525 515 _____O___OP___ -1 -13.3000 55.1000 99 9.90000 -13.4000 54.9000 TC 35 -13.3999 54.9650 2 3 248
1930024S12059 1930 6 SI MM NOT_NAMED 1930-01-27 09:00:00 TS -13.4182 54.8666 main 515 491 _____P___PP___ -1 -13.3546 54.9605 99 -13.4500 54.8000 TC 35 -13.4499 54.8393 2 3 247
1930024S12059 1930 6 SI MM NOT_NAMED 1930-01-27 12:00:00 TS -13.4690 54.7403 main 491 481 _____P___OO___ -1 -13.4071 54.8208 99 -13.5000 54.7000 TC 35 -13.5000 54.7000 2 3 249
1930024S12059 1930 6 SI MM NOT_NAMED 1930-01-27 15:00:00 TS -13.5193 54.5963 main 481 466 _____P___PP___ -1 -13.4579 54.6813 99 -13.5500 54.5650 TC 35 -13.5501 54.5425 2 3 252
1930024S12059 1930 6 SI MM NOT_NAMED 1930-01-27 18:00:00 TS -13.5630 54.4480 main 456 446 _____P___OP___ -1 -13.5074 54.5424 99 -13.6000 54.4000 TC 35 -13.6001 54.3701 2 3 254
1930024S12059 1930 6 SI MM NOT_NAMED 1930-01-27 21:00:00 TS -13.6030 54.3010 main 446 437 _____P___PP___ -1 -13.5560 54.4044 99 -13.6500 54.2075 TC 35 -13.6501 54.1876 2 3 254
1930024S12059 1930 6 SI MM NOT_NAMED 1930-01-28 00:00:00 TS -13.6360 54.1785 main 437 422 _____P___OO___ -1 -13.6040 54.2677 99 -13.7000 54.0000 TC 35 -13.7000 54.0000 2 2 254
1930024S12059 1930 6 SI MM NOT_NAMED 1930-01-28 03:00:00 NR -13.6519 54.1328 main 422 412 _____P________ -1 -13.6519 54.1328 99 TC 2 2 250
1930024S12059 1930 6 SI MM NOT_NAMED 1930-01-28 06:00:00 NR -13.7000 54.0000 reunion main 412 402 _____O________ -1 -13.7000 54.0000 99 9.90000 2 3 249
1930024S12059 1930 6 SI MM NOT_NAMED 1930-01-28 09:00:00 NR -13.7487 53.8696 main 402 378 _____P________ -1 -13.7487 53.8696 99 2 3 249
1930024S12059 1930 6 SI MM NOT_NAMED 1930-01-28 12:00:00 NR -13.7979 53.7414 main 378 368 _____P________ -1 -13.7979 53.7414 99 3 248
1930024S12059 1930 6 SI MM NOT_NAMED 1930-01-28 15:00:00 NR -13.8476 53.6150 main 368 354 _____P________ -1 -13.8476 53.6150 99 3 248
1930024S12059 1930 6 SI MM NOT_NAMED 1930-01-28 18:00:00 NR -13.8977 53.4902 main 354 344 _____P________ -1 -13.8977 53.4902 99 3 247
1930024S12059 1930 6 SI MM NOT_NAMED 1930-01-28 21:00:00 NR -13.9480 53.3666 main 344 330 _____P________ -1 -13.9480 53.3666 99 3 247
1930024S12059 1930 6 SI MM NOT_NAMED 1930-01-29 00:00:00 NR -13.9986 53.2439 main 320 310 _____P________ -1 -13.9986 53.2439 99 3 247
1930024S12059 1930 6 SI MM NOT_NAMED 1930-01-29 03:00:00 NR -14.0493 53.1218 main 310 295 _____P________ -1 -14.0493 53.1218 99 3 247
1930024S12059 1930 6 SI MM NOT_NAMED 1930-01-29 06:00:00 NR -14.1000 53.0000 reunion main 295 _____O________ -1 -14.1000 53.0000 99 9.90000 3 247

IBTrACS Databaseについて

本データベースは、米国NOAAが公開する1842年以降の世界の熱帯低気圧のベストトラックデータアーカイブInternational Best Track Archive for Climate Stewardship (IBTrACS)を、ウェブで閲覧しやすい形式に変換したものです。

最終更新日:2021-12-06